createdAt,value
2023-01-13T00:00:10.021Z,95612.53
2023-01-13T00:02:11.416Z,95612.56
2023-01-13T00:04:11.580Z,95606.91
2023-01-13T00:06:14.145Z,95613.56
2023-01-13T00:08:12.380Z,95608.00
2023-01-13T00:10:12.466Z,95610.97
2023-01-13T00:12:10.667Z,95613.34
2023-01-13T00:14:08.968Z,95616.25
2023-01-13T00:16:12.466Z,95613.44
2023-01-13T00:18:10.923Z,95616.41
2023-01-13T00:20:12.259Z,95624.25
2023-01-13T00:22:10.432Z,95612.47
2023-01-13T00:24:08.640Z,95616.97
2023-01-13T00:26:08.648Z,95619.56
2023-01-13T00:28:06.793Z,95610.09
2023-01-13T00:30:07.905Z,95612.72
2023-01-13T00:32:07.553Z,95612.78
2023-01-13T00:34:05.706Z,95614.38
2023-01-13T00:36:05.734Z,95614.31
2023-01-13T00:38:03.835Z,95611.59
2023-01-13T00:40:02.157Z,95609.69
2023-01-13T00:42:17.734Z,95606.31
2023-01-13T00:44:15.901Z,95612.28
2023-01-13T00:46:15.612Z,95612.19
2023-01-13T00:48:15.213Z,95612.59
2023-01-13T00:50:13.430Z,95612.66
2023-01-13T00:52:11.570Z,95611.56
2023-01-13T00:54:09.832Z,95609.53
2023-01-13T00:56:10.931Z,95613.63
2023-01-13T00:58:09.161Z,95609.13
2023-01-13T01:00:08.413Z,95616.41
2023-01-13T01:02:06.870Z,95613.66
2023-01-13T01:04:07.101Z,95619.13
2023-01-13T01:06:07.448Z,95607.28
2023-01-13T01:08:05.945Z,95610.72
2023-01-13T01:10:04.520Z,95602.03
2023-01-13T01:12:02.908Z,95605.53
2023-01-13T01:14:03.136Z,95601.19
2023-01-13T01:16:01.557Z,95612.41
2023-01-13T01:17:59.793Z,95606.31
2023-01-13T01:19:59.371Z,95593.53
2023-01-13T01:21:57.587Z,95603.28
2023-01-13T01:23:56.484Z,95593.84
2023-01-13T01:25:54.698Z,95606.03
2023-01-13T01:27:52.869Z,95605.34
2023-01-13T01:29:51.041Z,95593.97
2023-01-13T01:31:49.420Z,95593.13
2023-01-13T01:33:48.113Z,95586.13
2023-01-13T01:35:48.077Z,95600.94
2023-01-13T01:37:46.492Z,95588.72
2023-01-13T01:39:44.634Z,95583.53
2023-01-13T01:42:03.742Z,95581.81
2023-01-13T01:44:07.083Z,95582.91
2023-01-13T01:46:06.011Z,95583.03
2023-01-13T01:48:07.574Z,95583.03
2023-01-13T01:50:11.973Z,95582.19
2023-01-13T01:52:14.035Z,95577.78
2023-01-13T01:54:16.716Z,95574.41
2023-01-13T01:56:16.600Z,95577.69
2023-01-13T01:58:21.032Z,95581.09
2023-01-13T02:00:19.403Z,95585.44
2023-01-13T02:02:18.112Z,95575.88
2023-01-13T02:04:21.801Z,95581.28
2023-01-13T02:06:21.025Z,95578.84
2023-01-13T02:08:21.927Z,95583.19
2023-01-13T02:10:23.399Z,95580.59
2023-01-13T02:12:38.530Z,95582.28
2023-01-13T02:14:37.977Z,95581.09
2023-01-13T02:16:39.905Z,95582.75
2023-01-13T02:18:55.756Z,95577.56
2023-01-13T02:21:13.449Z,95576.03
2023-01-13T02:24:11.439Z,95586.41
2023-01-13T02:26:52.178Z,95571.91
2023-01-13T02:29:29.026Z,95572.78
2023-01-13T02:31:45.569Z,95571.13
2023-01-13T02:33:57.140Z,95572.97
2023-01-13T02:36:02.348Z,95585.63
2023-01-13T02:38:02.672Z,95581.28
2023-01-13T02:40:04.327Z,95569.16
2023-01-13T02:42:26.264Z,95578.34
2023-01-13T02:44:29.942Z,95570.88
2023-01-13T02:46:34.275Z,95569.66
2023-01-13T02:48:33.573Z,95573.91
2023-01-13T02:50:37.171Z,95569.16
2023-01-13T02:52:39.395Z,95562.06
2023-01-13T02:54:40.471Z,95575.84
2023-01-13T02:56:43.236Z,95560.38
2023-01-13T02:58:44.375Z,95566.28
2023-01-13T03:00:44.087Z,95570.09
2023-01-13T03:02:44.141Z,95571.16
2023-01-13T03:04:54.534Z,95574.69
2023-01-13T03:07:04.546Z,95574.69
2023-01-13T03:09:08.219Z,95571.47
2023-01-13T03:11:09.887Z,95573.47
2023-01-13T03:13:20.947Z,95568.41
2023-01-13T03:15:26.291Z,95578.09
2023-01-13T03:17:33.077Z,95567.88
2023-01-13T03:19:43.867Z,95572.97
2023-01-13T03:21:49.852Z,95571.16
2023-01-13T03:23:55.980Z,95568.94
2023-01-13T03:26:02.299Z,95563.38
2023-01-13T03:28:04.879Z,95573.53
2023-01-13T03:30:08.987Z,95575.28
2023-01-13T03:32:13.186Z,95565.81
2023-01-13T03:34:17.041Z,95574.38
2023-01-13T03:36:19.367Z,95578.97
2023-01-13T03:38:21.269Z,95584.44
2023-01-13T03:40:24.717Z,95580.19
2023-01-13T03:42:25.444Z,95572.78
2023-01-13T03:44:32.914Z,95586.59
2023-01-13T03:46:37.647Z,95585.81
2023-01-13T03:48:38.710Z,95581.69
2023-01-13T03:50:41.058Z,95586.28
2023-01-13T03:52:45.873Z,95578.63
2023-01-13T03:54:48.911Z,95584.94
2023-01-13T03:56:50.363Z,95579.84
2023-01-13T03:58:50.544Z,95586.56
2023-01-13T04:00:54.280Z,95588.22
2023-01-13T04:02:56.311Z,95576.03
2023-01-13T04:05:00.236Z,95579.09
2023-01-13T04:07:08.834Z,95583.00
2023-01-13T04:09:19.295Z,95587.97
2023-01-13T04:11:23.687Z,95588.50
2023-01-13T04:13:26.989Z,95588.38
2023-01-13T04:15:28.420Z,95591.81
2023-01-13T04:17:26.812Z,95591.03
2023-01-13T04:19:25.121Z,95589.94
2023-01-13T04:21:23.759Z,95591.78
2023-01-13T04:23:23.068Z,95595.31
2023-01-13T04:25:22.929Z,95592.75
2023-01-13T04:27:21.282Z,95597.34
2023-01-13T04:29:19.456Z,95591.47
2023-01-13T04:31:17.713Z,95595.75
2023-01-13T04:33:17.793Z,95600.16
2023-01-13T04:35:16.563Z,95601.22
2023-01-13T04:37:14.880Z,95607.34
2023-01-13T04:39:13.648Z,95597.91
2023-01-13T04:41:13.564Z,95602.41
2023-01-13T04:43:12.053Z,95605.66
2023-01-13T04:45:11.458Z,95606.56
2023-01-13T04:47:09.758Z,95610.91
2023-01-13T04:49:08.119Z,95594.06
2023-01-13T04:51:06.724Z,95614.94
2023-01-13T04:53:05.070Z,95607.00
2023-01-13T04:55:03.745Z,95597.84
2023-01-13T04:57:03.380Z,95602.19
2023-01-13T04:59:01.607Z,95603.56
2023-01-13T05:00:59.929Z,95606.88
2023-01-13T05:02:58.044Z,95604.41
2023-01-13T05:04:56.411Z,95608.00
2023-01-13T05:06:54.692Z,95605.41
2023-01-13T05:08:52.955Z,95608.78
2023-01-13T05:10:51.120Z,95606.22
2023-01-13T05:13:08.052Z,95610.44
2023-01-13T05:15:25.031Z,95622.13
2023-01-13T05:17:26.014Z,95618.69
2023-01-13T05:19:24.483Z,95617.75
2023-01-13T05:21:40.357Z,95614.56
2023-01-13T05:23:55.926Z,95619.75
2023-01-13T05:25:54.202Z,95616.41
2023-01-13T05:27:55.087Z,95625.19
2023-01-13T05:29:53.921Z,95617.63
2023-01-13T05:31:52.021Z,95618.31
2023-01-13T05:33:50.179Z,95613.31
2023-01-13T05:35:50.031Z,95617.66
2023-01-13T05:37:48.514Z,95626.47
2023-01-13T05:40:05.821Z,95617.91
2023-01-13T05:42:21.070Z,95615.91
2023-01-13T05:44:20.602Z,95616.94
2023-01-13T05:46:19.575Z,95624.19
2023-01-13T05:48:19.104Z,95625.25
2023-01-13T05:50:17.911Z,95619.06
2023-01-13T05:52:16.232Z,95627.78
2023-01-13T05:54:14.499Z,95626.34
2023-01-13T05:56:12.863Z,95625.41
2023-01-13T05:58:11.961Z,95627.69
2023-01-13T06:00:13.399Z,95624.00
2023-01-13T06:02:11.651Z,95627.22
2023-01-13T06:04:09.896Z,95623.28
2023-01-13T06:06:09.129Z,95624.03
2023-01-13T06:08:09.331Z,95632.19
2023-01-13T06:10:11.525Z,95637.75
2023-01-13T06:12:12.318Z,95637.00
2023-01-13T06:14:10.623Z,95641.56
2023-01-13T06:16:10.996Z,95646.75
2023-01-13T06:18:10.248Z,95650.28
2023-01-13T06:20:13.080Z,95647.66
2023-01-13T06:22:14.856Z,95650.28
2023-01-13T06:24:13.011Z,95651.88
2023-01-13T06:26:17.265Z,95646.69
2023-01-13T06:28:15.646Z,95651.34
2023-01-13T06:30:14.312Z,95655.59
2023-01-13T06:32:18.661Z,95653.00
2023-01-13T06:34:17.117Z,95653.94
2023-01-13T06:36:22.235Z,95652.03
2023-01-13T06:38:24.644Z,95657.63
2023-01-13T06:40:23.278Z,95649.34
2023-01-13T06:42:38.969Z,95644.38
2023-01-13T06:44:37.362Z,95648.75
2023-01-13T06:46:36.168Z,95656.41
2023-01-13T06:48:36.542Z,95648.91
2023-01-13T06:50:34.684Z,95646.44
2023-01-13T06:52:32.873Z,95648.94
2023-01-13T06:54:31.023Z,95648.28
2023-01-13T06:56:29.197Z,95649.59
2023-01-13T06:58:27.482Z,95649.44
2023-01-13T07:00:26.849Z,95652.94
2023-01-13T07:02:25.107Z,95651.25
2023-01-13T07:04:24.899Z,95652.88
2023-01-13T07:06:23.173Z,95652.25
2023-01-13T07:08:21.659Z,95652.47
2023-01-13T07:10:23.303Z,95650.09
2023-01-13T07:12:21.600Z,95660.81
2023-01-13T07:14:38.095Z,95650.72
2023-01-13T07:16:36.557Z,95657.41
2023-01-13T07:18:36.562Z,95647.81
2023-01-13T07:20:36.168Z,95648.50
2023-01-13T07:22:34.588Z,95643.22
2023-01-13T07:24:32.790Z,95649.78
2023-01-13T07:26:31.074Z,95650.31
2023-01-13T07:28:30.940Z,95649.50
2023-01-13T07:30:29.126Z,95651.31
2023-01-13T07:32:27.310Z,95649.78
2023-01-13T07:34:25.514Z,95643.69
2023-01-13T07:36:25.153Z,95642.88
2023-01-13T07:38:23.500Z,95648.75
2023-01-13T07:40:21.971Z,95648.59
2023-01-13T07:42:37.675Z,95644.56
2023-01-13T07:44:36.137Z,95650.13
2023-01-13T07:46:34.819Z,95649.47
2023-01-13T07:48:34.908Z,95650.97
2023-01-13T07:50:33.415Z,95650.47
2023-01-13T07:52:33.094Z,95647.78
2023-01-13T07:54:40.135Z,95653.06
2023-01-13T07:56:39.286Z,95647.94
2023-01-13T07:58:38.192Z,95656.16
2023-01-13T08:00:36.445Z,95656.44
2023-01-13T08:02:34.822Z,95656.16
2023-01-13T08:04:33.211Z,95647.75
2023-01-13T08:06:31.486Z,95655.47
2023-01-13T08:08:31.136Z,95663.47
2023-01-13T08:10:29.394Z,95656.31
2023-01-13T08:12:54.168Z,95659.97
2023-01-13T08:14:55.495Z,95660.22
2023-01-13T08:16:53.739Z,95662.69
2023-01-13T08:18:52.230Z,95663.53
2023-01-13T08:20:52.597Z,95663.59
2023-01-13T08:22:51.661Z,95658.25
2023-01-13T08:24:51.396Z,95661.28
2023-01-13T08:26:52.323Z,95660.00
2023-01-13T08:28:50.671Z,95667.00
2023-01-13T08:30:49.276Z,95660.53
2023-01-13T08:32:48.460Z,95659.78
2023-01-13T08:34:46.791Z,95652.91
2023-01-13T08:36:45.000Z,95655.78
2023-01-13T08:38:43.905Z,95649.53
2023-01-13T08:40:43.479Z,95654.91
2023-01-13T08:42:41.980Z,95658.41
2023-01-13T08:44:40.347Z,95658.31
2023-01-13T08:46:39.043Z,95659.25
2023-01-13T08:48:37.279Z,95650.53
2023-01-13T08:50:35.595Z,95654.75
2023-01-13T08:52:33.716Z,95651.09
2023-01-13T08:54:32.349Z,95655.94
2023-01-13T08:56:35.298Z,95662.97
2023-01-13T08:58:33.871Z,95654.94
2023-01-13T09:00:32.898Z,95652.31
2023-01-13T09:02:31.617Z,95652.84
2023-01-13T09:04:30.351Z,95659.38
2023-01-13T09:06:29.014Z,95657.69
2023-01-13T09:08:27.444Z,95647.44
2023-01-13T09:10:25.734Z,95643.56
2023-01-13T09:12:42.987Z,95646.56
2023-01-13T09:14:41.575Z,95641.84
2023-01-13T09:16:39.957Z,95644.25
2023-01-13T09:18:38.114Z,95644.63
2023-01-13T09:20:36.937Z,95645.03
2023-01-13T09:22:37.555Z,95644.94
2023-01-13T09:24:35.989Z,95645.13
2023-01-13T09:26:34.484Z,95652.53
2023-01-13T09:28:34.312Z,95643.50
2023-01-13T09:30:32.770Z,95644.31
2023-01-13T09:32:30.972Z,95642.38
2023-01-13T09:34:46.561Z,95643.72
2023-01-13T09:36:44.808Z,95641.69
2023-01-13T09:38:43.168Z,95639.31
2023-01-13T09:40:44.009Z,95638.78
2023-01-13T09:43:18.366Z,95640.25
2023-01-13T09:45:22.840Z,95638.44
2023-01-13T09:47:22.951Z,95636.09
2023-01-13T09:49:25.555Z,95638.84
2023-01-13T09:51:31.457Z,95634.84
2023-01-13T09:53:33.855Z,95631.91
2023-01-13T09:55:36.875Z,95629.44
2023-01-13T09:57:38.443Z,95632.59
2023-01-13T09:59:38.385Z,95626.53
2023-01-13T10:01:47.566Z,95630.78
2023-01-13T10:03:45.997Z,95629.09
2023-01-13T10:05:50.468Z,95624.88
2023-01-13T10:07:53.545Z,95619.28
2023-01-13T10:09:55.254Z,95623.00
2023-01-13T10:12:14.511Z,95612.84
2023-01-13T10:14:17.532Z,95619.34
2023-01-13T10:16:25.538Z,95620.31
2023-01-13T10:18:31.152Z,95622.56
2023-01-13T10:20:37.077Z,95617.59
2023-01-13T10:22:49.970Z,95615.66
2023-01-13T10:25:18.440Z,95613.69
2023-01-13T10:27:24.997Z,95610.44
2023-01-13T10:29:26.117Z,95605.19
2023-01-13T10:31:25.994Z,95601.34
2023-01-13T10:33:29.099Z,95609.03
2023-01-13T10:35:51.409Z,95604.09
2023-01-13T10:37:58.782Z,95595.31
2023-01-13T10:39:58.864Z,95599.72
2023-01-13T10:42:04.668Z,95599.41
2023-01-13T10:44:04.795Z,95596.13
2023-01-13T10:46:06.234Z,95597.50
2023-01-13T10:48:08.643Z,95587.28
2023-01-13T10:50:25.761Z,95591.88
2023-01-13T10:52:29.749Z,95583.63
2023-01-13T10:54:28.455Z,95583.84
2023-01-13T10:56:29.748Z,95587.41
2023-01-13T10:58:28.987Z,95584.13
2023-01-13T11:00:29.687Z,95584.53
2023-01-13T11:02:30.730Z,95589.25
2023-01-13T11:04:32.902Z,95590.91
2023-01-13T11:06:34.172Z,95586.06
2023-01-13T11:08:43.083Z,95589.09
2023-01-13T11:10:48.003Z,95584.09
2023-01-13T11:12:52.696Z,95582.69
2023-01-13T11:14:52.208Z,95575.63
2023-01-13T11:16:54.629Z,95573.53
2023-01-13T11:19:12.031Z,95580.22
2023-01-13T11:21:18.599Z,95570.84
2023-01-13T11:23:25.380Z,95576.38
2023-01-13T11:25:32.792Z,95575.94
2023-01-13T11:27:41.517Z,95572.53
2023-01-13T11:29:44.584Z,95567.44
2023-01-13T11:31:49.495Z,95568.03
2023-01-13T11:33:53.999Z,95571.31
2023-01-13T11:36:09.734Z,95568.81
2023-01-13T11:38:14.551Z,95568.47
2023-01-13T11:40:19.945Z,95569.19
2023-01-13T11:42:25.333Z,95564.91
2023-01-13T11:44:28.948Z,95562.88
2023-01-13T11:46:29.322Z,95562.88
2023-01-13T11:48:31.555Z,95556.88
2023-01-13T11:50:38.203Z,95553.88
2023-01-13T11:53:10.004Z,95555.91
2023-01-13T11:55:33.829Z,95552.34
2023-01-13T11:57:57.173Z,95559.47
2023-01-13T12:00:16.171Z,95550.00
2023-01-13T12:02:38.612Z,95549.19
2023-01-13T12:04:45.578Z,95551.03
2023-01-13T12:06:46.753Z,95544.91
2023-01-13T12:09:14.088Z,95537.59
2023-01-13T12:11:20.213Z,95545.59
2023-01-13T12:13:29.795Z,95538.22
2023-01-13T12:16:05.667Z,95543.31
2023-01-13T12:18:28.996Z,95544.56
2023-01-13T12:20:40.416Z,95534.22
2023-01-13T12:22:39.567Z,95537.47
2023-01-13T12:24:47.212Z,95535.78
2023-01-13T12:26:55.949Z,95533.16
2023-01-13T12:28:59.019Z,95538.53
2023-01-13T12:31:01.971Z,95536.22
2023-01-13T12:33:17.966Z,95542.38
2023-01-13T12:35:28.707Z,95537.59
2023-01-13T12:37:34.265Z,95536.78
2023-01-13T12:39:44.570Z,95536.25
2023-01-13T12:42:08.967Z,95539.81
2023-01-13T12:44:26.913Z,95544.09
2023-01-13T12:46:59.072Z,95545.22
2023-01-13T12:49:08.450Z,95537.78
2023-01-13T12:51:23.262Z,95541.66
2023-01-13T12:53:36.461Z,95544.25
2023-01-13T12:55:35.991Z,95547.94
2023-01-13T12:57:38.196Z,95541.25
2023-01-13T12:59:37.252Z,95546.78
2023-01-13T13:01:37.629Z,95550.72
2023-01-13T13:03:37.537Z,95550.03
2023-01-13T13:05:46.130Z,95548.06
2023-01-13T13:07:47.621Z,95544.25
2023-01-13T13:09:50.787Z,95549.94
2023-01-13T13:12:07.819Z,95542.56
2023-01-13T13:14:08.704Z,95549.75
2023-01-13T13:16:49.991Z,95553.69
2023-01-13T13:18:49.019Z,95555.25
2023-01-13T13:21:09.917Z,95558.31
2023-01-13T13:23:37.898Z,95559.41
2023-01-13T13:25:36.413Z,95551.00
2023-01-13T13:27:41.545Z,95560.81
2023-01-13T13:29:51.208Z,95560.13
2023-01-13T13:32:15.865Z,95566.34
2023-01-13T13:34:22.394Z,95560.97
2023-01-13T13:36:39.515Z,95561.25
2023-01-13T13:39:17.123Z,95562.66
2023-01-13T13:41:38.938Z,95563.59
2023-01-13T13:43:59.015Z,95568.09
2023-01-13T13:46:16.538Z,95568.66
2023-01-13T13:48:24.410Z,95571.81
2023-01-13T13:50:24.263Z,95569.84
2023-01-13T13:52:26.862Z,95572.06
2023-01-13T13:54:25.613Z,95570.41
2023-01-13T13:56:27.342Z,95563.03
2023-01-13T13:58:29.418Z,95563.59
2023-01-13T14:00:30.805Z,95569.94
2023-01-13T14:02:33.532Z,95570.88
2023-01-13T14:04:35.613Z,95564.06
2023-01-13T14:06:35.225Z,95563.59
2023-01-13T14:08:35.817Z,95562.22
2023-01-13T14:10:37.500Z,95565.56
2023-01-13T14:12:39.778Z,95564.91
2023-01-13T14:14:38.251Z,95566.31
2023-01-13T14:16:39.744Z,95576.00
2023-01-13T14:18:46.765Z,95568.28
2023-01-13T14:20:45.469Z,95569.75
2023-01-13T14:22:48.017Z,95572.66
2023-01-13T14:24:58.050Z,95569.94
2023-01-13T14:27:09.508Z,95574.50
2023-01-13T14:29:12.491Z,95565.28
2023-01-13T14:31:11.831Z,95567.03
2023-01-13T14:33:17.017Z,95571.44
2023-01-13T14:35:19.611Z,95572.72
2023-01-13T14:37:26.670Z,95572.44
2023-01-13T14:39:26.624Z,95575.44
2023-01-13T14:41:29.058Z,95574.94
2023-01-13T14:43:27.798Z,95585.00
2023-01-13T14:45:27.034Z,95580.25
2023-01-13T14:47:28.314Z,95578.72
2023-01-13T14:49:31.764Z,95577.50
2023-01-13T14:51:32.634Z,95586.25
2023-01-13T14:53:43.309Z,95586.28
2023-01-13T14:55:42.220Z,95586.78
2023-01-13T14:57:41.842Z,95581.56
2023-01-13T14:59:45.330Z,95588.00
2023-01-13T15:01:43.880Z,95589.66
2023-01-13T15:03:42.855Z,95592.66
2023-01-13T15:05:48.314Z,95594.31
2023-01-13T15:07:53.898Z,95590.47
2023-01-13T15:09:55.283Z,95590.19
2023-01-13T15:11:54.322Z,95588.03
2023-01-13T15:13:59.161Z,95595.25
2023-01-13T15:15:59.357Z,95593.00
2023-01-13T15:17:58.147Z,95592.91
2023-01-13T15:19:56.375Z,95589.72
2023-01-13T15:21:54.515Z,95596.69
2023-01-13T15:23:54.066Z,95592.25
2023-01-13T15:25:52.220Z,95597.47
2023-01-13T15:27:53.132Z,95596.63
2023-01-13T15:29:51.337Z,95596.25
2023-01-13T15:31:49.570Z,95598.81
2023-01-13T15:33:47.891Z,95596.03
2023-01-13T15:35:47.874Z,95591.38
2023-01-13T15:37:47.539Z,95594.97
2023-01-13T15:39:47.458Z,95597.34
2023-01-13T15:42:03.204Z,95598.50
2023-01-13T15:44:15.347Z,95600.84
2023-01-13T15:46:33.742Z,95601.47
2023-01-13T15:48:33.026Z,95603.13
2023-01-13T15:50:33.791Z,95606.56
2023-01-13T15:52:32.159Z,95598.09
2023-01-13T15:54:30.762Z,95603.78
2023-01-13T15:56:30.507Z,95601.19
2023-01-13T15:58:32.037Z,95603.91
2023-01-13T16:00:30.482Z,95602.41
2023-01-13T16:02:29.832Z,95607.50
2023-01-13T16:04:28.202Z,95607.06
2023-01-13T16:06:32.491Z,95610.06
2023-01-13T16:08:34.381Z,95606.19
2023-01-13T16:10:32.729Z,95600.97
2023-01-13T16:12:32.566Z,95607.56
2023-01-13T16:14:30.739Z,95596.13
2023-01-13T16:16:29.996Z,95598.81
2023-01-13T16:18:28.296Z,95596.31
2023-01-13T16:20:27.714Z,95601.03
2023-01-13T16:22:25.799Z,95600.03
2023-01-13T16:24:24.610Z,95602.53
2023-01-13T16:26:25.180Z,95598.34
2023-01-13T16:28:28.266Z,95605.41
2023-01-13T16:30:28.842Z,95602.06
2023-01-13T16:32:26.916Z,95604.78
2023-01-13T16:34:25.445Z,95600.16
2023-01-13T16:36:23.973Z,95601.47
2023-01-13T16:38:22.271Z,95603.34
2023-01-13T16:40:24.965Z,95605.69
2023-01-13T16:42:23.313Z,95598.69
2023-01-13T16:44:23.221Z,95609.00
2023-01-13T16:46:24.391Z,95605.81
2023-01-13T16:48:22.935Z,95604.47
2023-01-13T16:50:33.468Z,95599.63
2023-01-13T16:52:31.776Z,95599.03
2023-01-13T16:54:30.098Z,95600.97
2023-01-13T16:56:38.510Z,95601.91
2023-01-13T16:58:39.370Z,95609.72
2023-01-13T17:00:39.108Z,95611.38
2023-01-13T17:02:37.873Z,95611.53
2023-01-13T17:04:36.333Z,95616.75
2023-01-13T17:06:39.623Z,95616.03
2023-01-13T17:08:37.835Z,95606.16
2023-01-13T17:10:36.071Z,95603.63
2023-01-13T17:12:34.316Z,95603.56
2023-01-13T17:14:32.591Z,95605.56
2023-01-13T17:16:32.236Z,95605.28
2023-01-13T17:18:30.534Z,95601.00
2023-01-13T17:20:29.277Z,95604.69
2023-01-13T17:22:27.613Z,95603.63
2023-01-13T17:24:26.061Z,95604.72
2023-01-13T17:26:32.336Z,95608.44
2023-01-13T17:28:35.627Z,95609.28
2023-01-13T17:31:11.222Z,95605.75
2023-01-13T17:33:11.042Z,95600.81
2023-01-13T17:35:18.939Z,95612.81
2023-01-13T17:37:17.762Z,95607.69
2023-01-13T17:39:18.201Z,95611.06
2023-01-13T17:41:16.732Z,95611.97
2023-01-13T17:43:17.070Z,95607.69
2023-01-13T17:45:16.426Z,95613.69
2023-01-13T17:47:14.920Z,95606.59
2023-01-13T17:49:16.335Z,95609.31
2023-01-13T17:51:22.598Z,95606.94
2023-01-13T17:53:21.493Z,95606.94
2023-01-13T17:55:20.685Z,95605.41
2023-01-13T17:57:19.191Z,95598.53
2023-01-13T17:59:20.478Z,95606.09
2023-01-13T18:01:24.352Z,95601.25
2023-01-13T18:03:22.942Z,95604.59
2023-01-13T18:05:23.621Z,95606.63
2023-01-13T18:07:22.357Z,95605.59
2023-01-13T18:09:21.865Z,95606.44
2023-01-13T18:11:25.433Z,95609.78
2023-01-13T18:13:24.291Z,95599.38
2023-01-13T18:15:23.198Z,95601.16
2023-01-13T18:17:21.621Z,95608.28
2023-01-13T18:19:37.631Z,95606.63
2023-01-13T18:21:51.375Z,95609.38
2023-01-13T18:24:07.978Z,95607.34
2023-01-13T18:26:36.112Z,95615.16
2023-01-13T18:28:36.159Z,95612.47
2023-01-13T18:30:35.063Z,95608.28
2023-01-13T18:32:35.003Z,95610.44
2023-01-13T18:34:33.526Z,95609.25
2023-01-13T18:36:32.435Z,95615.50
2023-01-13T18:38:32.364Z,95614.81
2023-01-13T18:40:31.055Z,95615.75
2023-01-13T18:42:46.725Z,95609.78
2023-01-13T18:44:45.754Z,95611.63
2023-01-13T18:46:44.399Z,95617.53
2023-01-13T18:48:44.536Z,95615.41
2023-01-13T18:50:43.349Z,95613.22
2023-01-13T18:52:42.511Z,95620.38
2023-01-13T18:54:42.307Z,95607.28
2023-01-13T18:56:41.438Z,95613.50
2023-01-13T18:58:44.382Z,95613.66
2023-01-13T19:00:42.995Z,95610.13
2023-01-13T19:02:42.196Z,95603.41
2023-01-13T19:04:41.163Z,95600.06
2023-01-13T19:06:48.743Z,95592.31
2023-01-13T19:08:48.883Z,95595.50
2023-01-13T19:10:49.899Z,95603.16
2023-01-13T19:12:48.607Z,95602.06
2023-01-13T19:14:47.454Z,95600.88
2023-01-13T19:16:46.293Z,95599.97
2023-01-13T19:18:45.570Z,95599.69
2023-01-13T19:20:44.311Z,95601.28
2023-01-13T19:22:42.942Z,95600.63
2023-01-13T19:24:42.851Z,95602.06
2023-01-13T19:26:43.132Z,95600.88
2023-01-13T19:28:42.675Z,95597.63
2023-01-13T19:30:44.433Z,95595.28
2023-01-13T19:32:43.730Z,95603.25
2023-01-13T19:34:45.114Z,95594.50
2023-01-13T19:36:43.594Z,95598.97
2023-01-13T19:38:41.827Z,95593.81
2023-01-13T19:40:39.967Z,95592.66
2023-01-13T19:42:57.396Z,95592.91
2023-01-13T19:45:12.611Z,95590.38
2023-01-13T19:47:10.927Z,95589.69
2023-01-13T19:49:10.512Z,95591.31
2023-01-13T19:51:08.681Z,95597.53
2023-01-13T19:53:07.417Z,95592.31
2023-01-13T19:55:08.906Z,95591.41
2023-01-13T19:57:39.380Z,95595.53
2023-01-13T19:59:44.765Z,95598.47
2023-01-13T20:01:58.343Z,95595.19
2023-01-13T20:04:23.715Z,95599.41
2023-01-13T20:06:44.862Z,95592.75
2023-01-13T20:08:52.650Z,95598.72
2023-01-13T20:11:27.435Z,95592.81
2023-01-13T20:13:33.932Z,95591.06
2023-01-13T20:15:33.568Z,95592.84
2023-01-13T20:17:31.917Z,95588.47
2023-01-13T20:19:30.227Z,95585.69
2023-01-13T20:21:28.635Z,95588.28
2023-01-13T20:23:27.084Z,95592.66
2023-01-13T20:25:25.795Z,95585.34
2023-01-13T20:27:25.084Z,95587.28
2023-01-13T20:29:23.950Z,95590.13
2023-01-13T20:31:23.997Z,95593.00
2023-01-13T20:33:22.285Z,95586.34
2023-01-13T20:35:20.827Z,95587.53
2023-01-13T20:37:19.363Z,95585.09
2023-01-13T20:39:20.565Z,95578.91
2023-01-13T20:41:36.605Z,95578.63
2023-01-13T20:43:35.083Z,95578.63
2023-01-13T20:45:34.100Z,95580.66
2023-01-13T20:47:33.886Z,95577.91
2023-01-13T20:49:32.182Z,95583.84
2023-01-13T20:51:30.523Z,95581.06
2023-01-13T20:53:28.738Z,95572.69
2023-01-13T20:55:27.175Z,95580.97
2023-01-13T20:57:25.737Z,95582.41
2023-01-13T20:59:24.239Z,95591.47
2023-01-13T21:01:22.733Z,95583.84
2023-01-13T21:03:22.714Z,95581.06
2023-01-13T21:05:21.079Z,95589.09
2023-01-13T21:07:19.427Z,95578.13
2023-01-13T21:09:18.008Z,95579.94
2023-01-13T21:11:18.114Z,95580.78
2023-01-13T21:13:33.920Z,95584.22
2023-01-13T21:15:31.292Z,95584.31
2023-01-13T21:17:46.931Z,95580.22
2023-01-13T21:19:46.799Z,95578.53
2023-01-13T21:21:45.105Z,95576.44
2023-01-13T21:23:47.280Z,95585.09
2023-01-13T21:25:45.870Z,95589.03
2023-01-13T21:27:44.461Z,95590.06
2023-01-13T21:29:44.587Z,95583.25
2023-01-13T21:31:43.029Z,95580.56
2023-01-13T21:33:41.414Z,95583.25
2023-01-13T21:35:41.302Z,95581.16
2023-01-13T21:37:40.216Z,95588.78
2023-01-13T21:39:38.620Z,95591.03
2023-01-13T21:42:06.188Z,95590.28
2023-01-13T21:44:21.959Z,95594.72
2023-01-13T21:46:38.430Z,95588.00
2023-01-13T21:48:36.927Z,95588.31
2023-01-13T21:50:35.392Z,95591.25
2023-01-13T21:52:35.090Z,95600.22
2023-01-13T21:54:33.798Z,95597.88
2023-01-13T21:56:32.184Z,95585.69
2023-01-13T21:58:30.421Z,95584.38
2023-01-13T22:00:31.657Z,95584.22
2023-01-13T22:02:32.205Z,95590.44
2023-01-13T22:04:30.470Z,95586.75
2023-01-13T22:06:29.015Z,95587.50
2023-01-13T22:08:29.306Z,95583.38
2023-01-13T22:10:30.041Z,95578.69
2023-01-13T22:12:29.883Z,95586.28
2023-01-13T22:14:28.289Z,95576.44
2023-01-13T22:16:29.054Z,95581.13
2023-01-13T22:18:27.563Z,95585.81
2023-01-13T22:20:26.101Z,95573.28
2023-01-13T22:22:25.604Z,95578.78
2023-01-13T22:24:26.830Z,95577.25
2023-01-13T22:26:25.403Z,95570.78
2023-01-13T22:28:25.438Z,95583.53
2023-01-13T22:30:25.312Z,95575.19
2023-01-13T22:32:23.873Z,95576.22
2023-01-13T22:34:22.710Z,95573.75
2023-01-13T22:36:21.701Z,95571.06
2023-01-13T22:38:20.269Z,95569.50
2023-01-13T22:40:20.335Z,95569.34
2023-01-13T22:42:18.791Z,95583.22
2023-01-13T22:44:17.242Z,95577.88
2023-01-13T22:46:16.142Z,95579.72
2023-01-13T22:48:15.519Z,95581.47
2023-01-13T22:50:20.980Z,95581.16
2023-01-13T22:52:19.652Z,95574.59
2023-01-13T22:54:19.265Z,95572.97
2023-01-13T22:56:21.735Z,95574.72
2023-01-13T22:58:22.978Z,95568.94
2023-01-13T23:00:22.174Z,95567.72
2023-01-13T23:02:20.423Z,95570.22
2023-01-13T23:04:18.769Z,95565.19
2023-01-13T23:06:18.220Z,95573.28
2023-01-13T23:08:16.622Z,95572.50
2023-01-13T23:10:15.003Z,95568.16
2023-01-13T23:12:14.729Z,95569.63
2023-01-13T23:14:13.903Z,95568.88
2023-01-13T23:16:14.623Z,95566.91
2023-01-13T23:18:12.726Z,95568.16
2023-01-13T23:20:12.344Z,95558.72
2023-01-13T23:22:10.614Z,95566.88
2023-01-13T23:24:09.666Z,95562.13
2023-01-13T23:26:08.758Z,95571.81
2023-01-13T23:28:10.747Z,95572.09
2023-01-13T23:30:15.494Z,95564.53
2023-01-13T23:32:13.763Z,95568.16
2023-01-13T23:34:11.986Z,95569.03
2023-01-13T23:36:14.243Z,95561.19
2023-01-13T23:38:12.564Z,95561.13
2023-01-13T23:40:11.840Z,95564.25
2023-01-13T23:42:10.241Z,95561.53
2023-01-13T23:44:10.473Z,95552.72
2023-01-13T23:46:10.742Z,95573.28
2023-01-13T23:48:09.304Z,95567.88
2023-01-13T23:50:10.269Z,95565.19
2023-01-13T23:52:08.660Z,95559.16
2023-01-13T23:54:06.890Z,95561.69
2023-01-13T23:56:08.028Z,95565.28
2023-01-13T23:58:06.362Z,95565.34
